עמוד ראשי
METAR-TAF:

שדות תעופה :

סלוניקי, יוון

נמל התעופה הבינלאומי סלוניקי מקדוניה

קו רוחב: 40-31N, קו אורך: 022-58E, גובה: 8מטר

תצפית מזג אוויר נוכחית

הדו"ח נערך לפני 47דקות, בשעה 02:50 UTC
רוח 3קשר עם כיוונים משתנים
טמפרטורת 13 צלסיוס
לחות 88%
לחץ 1017 hPa
ראות 10 קילומטר או יותר
מעט עננים בגובה 2000רגל

METAR: LGTS 260250Z VRB03KT 9999 FEW020 13/11 Q1017 NOSIG

זמן: 06:37 (03:37 UTC)

תחזית

הדו"ח נערך לפני 4 שעות ו 37דקות, בשעה 23:00 UTC
תחזית בתוקף מ 26 ב 00 UTC עד 26 ב 24 UTC
רוח 3קשר עם כיוונים משתנים
ראות 10 קילומטר או יותר
מעט עננים בגובה 3000רגל
הסתברות 40% :
זמנית מ -
26 ב 00 UTC עד 26 ב 20 UTC
ראות: 6000מטר
מעט עננים בגובה 2000רגל , קומולונימבוס.
עננים פזורים בגובה 2500רגל
ממטרי גשם
יעשה מ
26 ב 00 UTC עד 26 ב 02 UTC
רוח 15קשר מכיוון צפון/צפון-מערב
יעשה מ
26 ב 12 UTC עד 26 ב 14 UTC
רוח 10קשר מכיוון דרום
יעשה מ
26 ב 18 UTC עד 26 ב 20 UTC
רוח 3קשר עם כיוונים משתנים

TAF: LGTS 252300Z 2600/2624 VRB03KT 9999 FEW030 PROB40 TEMPO 2600/2620 6000 SHRA FEW020CB SCT025 BECMG 2600/2602 34015KT BECMG 2612/2614 18010KT BECMG 2618/2620 VRB03KT

METAR-TAF

תצפיות ותחזיות מזג אוויר לגבי יותר מ- 4,000 שדות תעופה ברחבי העולם. דוחות METAR ו- TAF.

התחנות הזמינות מסומנות בנקודות צהובות ואדומות על גבי המפה.

העבר את העכבר לנקודה הצבעונית על מנת לראות את שם התחנה.

לאחר מכן, לחץ כדי לראות את תוכן ואת תחזיות מזג האוויר.

כדי לשנות את המפה: לחץ על הכפתורים הירוקים עם הפלוס השחור כדי להתקרב; על הכפתור הירוק עם המקף כדי להתרחק; או בחיצים הירוקים למפות סמוכות.


METAR-TAF: